Time;durP1;ratioP1;P1;durP2;ratioP2;P2;SDS_P1;SDS_P2;PMS_P1;PMS_P2;Temp;Humidity;BMP_temperature;BMP_pressure;BME280_temperature;BME280_humidity;BME280_pressure;Samples;Min_cycle;Max_cycle;Signal;HPM_P1;HPM_P2
2022/03/23 00:02:23;;;;;;;26.13;17.60;;;8.10;99.90;;;;;;4904440;29;20395;-76
2022/03/23 00:04:49;;;;;;;32.97;23.83;;;8.10;99.90;;;;;;4905885;29;20055;-76
2022/03/23 00:07:14;;;;;;;32.00;22.40;;;8.10;99.90;;;;;;4888774;29;20055;-76
2022/03/23 00:09:40;;;;;;;39.25;23.08;;;8.10;99.90;;;;;;4905844;29;20562;-76
2022/03/23 00:12:07;;;;;;;20.73;17.35;;;8.10;99.90;;;;;;4905262;29;20044;-76
2022/03/23 00:14:33;;;;;;;36.45;22.80;;;8.10;99.90;;;;;;4905947;29;20075;-76
2022/03/23 00:16:58;;;;;;;32.25;20.60;;;8.10;99.90;;;;;;4905440;29;20091;-76
2022/03/23 00:19:24;;;;;;;26.30;22.85;;;8.00;99.90;;;;;;4905301;29;20056;-76
2022/03/23 00:21:49;;;;;;;30.80;20.80;;;8.00;99.90;;;;;;4904197;29;20124;-76
2022/03/23 00:24:15;;;;;;;26.60;18.75;;;8.00;99.90;;;;;;4905446;29;20048;-76
2022/03/23 00:26:40;;;;;;;28.88;19.67;;;8.00;99.90;;;;;;4904589;29;20087;-76
2022/03/23 00:29:06;;;;;;;28.73;21.40;;;8.00;99.90;;;;;;4904757;29;20642;-76
2022/03/23 00:31:32;;;;;;;28.83;23.00;;;8.00;99.90;;;;;;4905275;29;20048;-76
2022/03/23 00:33:57;;;;;;;39.85;19.10;;;8.00;99.90;;;;;;4905334;29;20043;-76
2022/03/23 00:36:24;;;;;;;23.70;21.20;;;8.00;99.90;;;;;;4904316;29;20048;-76
2022/03/23 00:38:50;;;;;;;33.95;24.17;;;8.00;99.90;;;;;;4905513;29;20052;-76
2022/03/23 00:41:16;;;;;;;34.47;21.80;;;7.90;99.90;;;;;;4903339;29;20045;-76
2022/03/23 00:43:42;;;;;;;22.45;20.25;;;7.90;99.90;;;;;;4903875;29;20051;-76
2022/03/23 00:46:08;;;;;;;28.80;22.58;;;7.90;99.90;;;;;;4906364;29;20518;-76
2022/03/23 00:48:33;;;;;;;24.35;21.40;;;7.90;99.90;;;;;;4909587;29;20495;-76
2022/03/23 00:50:59;;;;;;;35.05;22.63;;;7.90;99.90;;;;;;4908491;29;20165;-76
2022/03/23 00:53:25;;;;;;;23.85;21.35;;;7.90;99.90;;;;;;4908766;29;20110;-76
2022/03/23 00:55:50;;;;;;;25.25;20.55;;;7.90;99.90;;;;;;4907717;29;20039;-76
2022/03/23 00:58:16;;;;;;;25.55;22.50;;;7.80;99.90;;;;;;4908331;29;20048;-76
2022/03/23 01:00:43;;;;;;;28.42;20.77;;;7.90;99.90;;;;;;4906779;29;20411;-76
2022/03/23 01:03:10;;;;;;;33.25;20.50;;;7.80;99.90;;;;;;4907855;29;20123;-76
2022/03/23 01:05:35;;;;;;;27.67;20.60;;;7.80;99.90;;;;;;4909212;29;20051;-76
2022/03/23 01:08:01;;;;;;;20.25;17.38;;;7.80;99.90;;;;;;4907976;29;20503;-76
2022/03/23 01:10:27;;;;;;;25.88;19.85;;;7.80;99.90;;;;;;4907060;29;20126;-76
2022/03/23 01:12:54;;;;;;;21.77;18.83;;;7.80;99.90;;;;;;4908811;29;20056;-76
2022/03/23 01:15:20;;;;;;;18.10;15.48;;;7.70;99.90;;;;;;4907707;29;20044;-76
2022/03/23 01:17:45;;;;;;;38.15;20.77;;;7.70;99.90;;;;;;4907561;29;20210;-76
2022/03/23 01:20:14;;;;;;;30.10;18.95;;;7.70;99.90;;;;;;4906363;29;20103;-76
2022/03/23 01:22:40;;;;;;;25.02;18.50;;;7.70;99.90;;;;;;4908256;29;20044;-76
2022/03/23 01:25:10;;;;;;;20.83;16.70;;;7.70;99.90;;;;;;4908895;29;20092;-76
2022/03/23 01:27:37;;;;;;;20.90;18.63;;;7.70;99.90;;;;;;4907875;29;20538;-76
2022/03/23 01:30:08;;;;;;;24.58;18.42;;;7.60;99.90;;;;;;4922164;29;20044;-76
2022/03/23 01:32:34;;;;;;;20.83;18.85;;;7.60;99.90;;;;;;4908250;29;20052;-76
2022/03/23 01:35:00;;;;;;;30.00;20.65;;;7.60;99.90;;;;;;4907239;29;20184;-76
2022/03/23 01:37:26;;;;;;;24.67;19.25;;;7.50;99.90;;;;;;4907664;29;20123;-76
2022/03/23 01:39:51;;;;;;;24.95;17.98;;;7.50;99.90;;;;;;4908038;29;20657;-76
2022/03/23 01:42:17;;;;;;;27.48;19.73;;;7.50;99.90;;;;;;4906911;29;20507;-76
2022/03/23 01:44:43;;;;;;;20.88;17.98;;;7.40;99.90;;;;;;4906480;29;20043;-76
2022/03/23 01:47:14;;;;;;;20.10;17.80;;;7.40;99.90;;;;;;4908221;29;20040;-76
2022/03/23 01:49:45;;;;;;;21.60;16.05;;;7.40;99.90;;;;;;4907896;29;20070;-76
2022/03/23 01:52:14;;;;;;;26.98;19.20;;;7.40;99.90;;;;;;4907518;29;20040;-76
2022/03/23 01:54:41;;;;;;;21.15;18.92;;;7.40;99.90;;;;;;4907748;29;20062;-76
2022/03/23 01:57:08;;;;;;;22.08;19.25;;;7.40;99.90;;;;;;4906741;29;20040;-76
2022/03/23 01:59:35;;;;;;;28.80;24.02;;;7.30;99.90;;;;;;4908158;29;20492;-76
2022/03/23 02:02:02;;;;;;;22.73;18.08;;;7.30;99.90;;;;;;4906819;29;20115;-76
2022/03/23 02:04:27;;;;;;;19.98;17.35;;;7.30;99.90;;;;;;4907785;29;20090;-76
2022/03/23 02:06:53;;;;;;;22.65;18.45;;;7.30;99.90;;;;;;4907049;29;20088;-76
2022/03/23 02:09:19;;;;;;;23.23;20.73;;;7.30;99.90;;;;;;4907082;29;20115;-76
2022/03/23 02:11:45;;;;;;;27.35;20.10;;;7.20;99.90;;;;;;4925489;23;20067;-75
2022/03/23 02:14:12;;;;;;;25.20;19.98;;;7.20;99.90;;;;;;4926325;29;20047;-76
2022/03/23 02:16:39;;;;;;;20.98;18.27;;;7.20;99.90;;;;;;4927363;29;20051;-76
2022/03/23 02:19:04;;;;;;;23.80;18.58;;;7.20;99.90;;;;;;4927960;29;20052;-76
2022/03/23 02:21:30;;;;;;;23.67;19.77;;;7.20;99.90;;;;;;4926047;29;20039;-76
2022/03/23 02:23:55;;;;;;;19.95;17.88;;;7.10;99.90;;;;;;4925178;29;20066;-76
2022/03/23 02:26:23;;;;;;;29.10;21.88;;;7.10;99.90;;;;;;4925575;29;20047;-76
2022/03/23 02:28:50;;;;;;;24.25;17.75;;;7.10;99.90;;;;;;4926647;29;20123;-76
2022/03/23 02:31:15;;;;;;;26.08;22.75;;;7.10;99.90;;;;;;4926102;29;20044;-76
2022/03/23 02:33:41;;;;;;;22.70;20.52;;;7.10;99.90;;;;;;4926661;29;20442;-76
2022/03/23 02:36:06;;;;;;;24.02;20.35;;;7.00;99.90;;;;;;4924876;29;20126;-76
2022/03/23 02:38:32;;;;;;;28.80;22.80;;;7.00;99.90;;;;;;4928242;29;20255;-76
2022/03/23 02:40:57;;;;;;;29.60;20.40;;;7.00;99.90;;;;;;4943215;29;20485;-76
2022/03/23 02:43:23;;;;;;;28.42;19.10;;;7.00;99.90;;;;;;4944924;28;20043;-76
2022/03/23 02:45:48;;;;;;;22.17;19.83;;;7.00;99.90;;;;;;4931233;29;20103;-76
2022/03/23 02:48:15;;;;;;;32.63;21.35;;;7.00;99.90;;;;;;4939861;29;20480;-76
2022/03/23 02:50:41;;;;;;;29.15;19.92;;;7.00;99.90;;;;;;4925952;29;20055;-76
2022/03/23 03:01:52;;;;;;;;;;;7.00;99.90;;;;;;4909396;29;20817;-76
2022/03/23 03:04:19;;;;;;;26.55;23.42;;;7.00;99.90;;;;;;4925884;29;19925;-76
2022/03/23 03:06:45;;;;;;;25.15;22.65;;;6.90;99.90;;;;;;4929980;29;20143;-76
2022/03/23 03:09:12;;;;;;;27.73;21.23;;;6.90;99.90;;;;;;4942437;28;20055;-76
2022/03/23 03:11:38;;;;;;;24.80;20.73;;;6.90;99.90;;;;;;4943778;28;20207;-76
2022/03/23 03:14:04;;;;;;;34.80;22.88;;;6.90;99.90;;;;;;4944482;28;20051;-76
2022/03/23 03:16:29;;;;;;;32.30;25.85;;;6.90;99.90;;;;;;4944758;28;20082;-76
2022/03/23 03:18:55;;;;;;;29.75;22.05;;;6.90;99.90;;;;;;4944344;28;20470;-76
2022/03/23 03:21:21;;;;;;;34.78;21.27;;;6.90;99.90;;;;;;4943986;28;20039;-76
2022/03/23 03:23:47;;;;;;;29.25;21.95;;;6.90;99.90;;;;;;4938852;28;20043;-76
2022/03/23 03:26:15;;;;;;;29.00;21.08;;;6.90;99.90;;;;;;4923917;29;20055;-76
2022/03/23 03:28:42;;;;;;;30.25;22.95;;;6.90;99.90;;;;;;4925519;29;20051;-76
2022/03/23 03:31:10;;;;;;;26.98;21.70;;;6.90;99.90;;;;;;4925701;29;20895;-76
2022/03/23 03:33:36;;;;;;;22.63;20.38;;;6.80;99.90;;;;;;4925050;29;20700;-76
2022/03/23 03:36:03;;;;;;;22.65;20.52;;;6.80;99.90;;;;;;4925359;29;20050;-76
2022/03/23 03:38:29;;;;;;;31.00;24.73;;;6.80;99.90;;;;;;4957499;28;20443;-76
2022/03/23 03:40:55;;;;;;;27.48;24.38;;;6.80;99.90;;;;;;4943572;28;20051;-76
2022/03/23 03:43:21;;;;;;;34.05;22.33;;;6.70;99.90;;;;;;4942792;29;20058;-76
2022/03/23 03:45:46;;;;;;;20.83;18.85;;;6.80;99.90;;;;;;4930547;28;20130;-76
2022/03/23 03:48:13;;;;;;;29.75;23.40;;;6.70;99.90;;;;;;4925126;29;20048;-76
2022/03/23 03:50:39;;;;;;;26.77;22.13;;;6.70;99.90;;;;;;4924677;29;20043;-76
2022/03/23 03:53:07;;;;;;;26.23;21.33;;;6.70;99.90;;;;;;4924193;29;20049;-76
2022/03/23 03:55:34;;;;;;;24.65;21.55;;;6.60;99.90;;;;;;4938726;29;20054;-76
2022/03/23 03:58:00;;;;;;;29.60;21.02;;;6.60;99.90;;;;;;4923885;29;20486;-76
2022/03/23 04:00:25;;;;;;;27.65;21.80;;;6.60;99.90;;;;;;4925084;29;20050;-76
2022/03/23 04:02:51;;;;;;;31.00;21.58;;;6.60;99.90;;;;;;4925098;29;20071;-76
2022/03/23 04:05:17;;;;;;;41.67;24.60;;;6.60;99.90;;;;;;4923438;29;20043;-76
2022/03/23 04:07:43;;;;;;;32.35;23.75;;;6.60;99.90;;;;;;4924907;29;20071;-76
2022/03/23 04:10:09;;;;;;;31.13;22.77;;;6.60;99.90;;;;;;4922198;29;20126;-76
2022/03/23 04:12:35;;;;;;;34.10;23.73;;;6.60;99.90;;;;;;4925037;29;20055;-76
2022/03/23 04:15:01;;;;;;;27.00;20.60;;;6.60;99.90;;;;;;4924660;29;20043;-76
2022/03/23 04:17:27;;;;;;;28.20;23.88;;;6.60;99.90;;;;;;4923384;29;20044;-76
2022/03/23 04:19:53;;;;;;;29.60;23.80;;;6.60;99.90;;;;;;4923791;29;20044;-76
2022/03/23 04:22:18;;;;;;;29.38;25.33;;;6.60;99.90;;;;;;4931938;29;20050;-76
2022/03/23 04:24:44;;;;;;;31.90;21.30;;;6.60;99.90;;;;;;4947386;28;20035;-76
2022/03/23 04:27:09;;;;;;;28.38;23.00;;;6.50;99.90;;;;;;4946647;28;20730;-76
2022/03/23 04:29:35;;;;;;;28.35;21.83;;;6.50;99.90;;;;;;4948332;28;20055;-76
2022/03/23 04:32:00;;;;;;;41.13;25.05;;;6.50;99.90;;;;;;4945513;29;20111;-76
2022/03/23 04:34:26;;;;;;;31.63;24.60;;;6.50;99.90;;;;;;4947172;28;20070;-76
2022/03/23 04:36:51;;;;;;;27.02;24.45;;;6.50;99.90;;;;;;4947201;28;20044;-76
2022/03/23 04:39:17;;;;;;;35.40;23.65;;;6.50;99.90;;;;;;4947270;28;20494;-76
2022/03/23 04:41:43;;;;;;;28.17;20.92;;;6.50;99.90;;;;;;4946430;28;20035;-76
2022/03/23 04:44:08;;;;;;;23.70;21.23;;;6.40;99.90;;;;;;4946904;28;20050;-76
2022/03/23 04:46:34;;;;;;;32.38;24.75;;;6.40;99.90;;;;;;4928316;28;20130;-76
2022/03/23 04:48:59;;;;;;;30.80;22.92;;;6.40;99.90;;;;;;4928085;29;20063;-76
2022/03/23 04:51:25;;;;;;;29.20;22.77;;;6.40;99.90;;;;;;4942142;28;20048;-76
2022/03/23 04:53:50;;;;;;;28.25;25.45;;;6.40;99.90;;;;;;4928864;29;20048;-75
2022/03/23 04:56:16;;;;;;;44.67;23.33;;;6.40;99.90;;;;;;4945389;28;20043;-76
2022/03/23 04:58:42;;;;;;;23.63;21.52;;;6.40;99.90;;;;;;4945586;29;20050;-76
2022/03/23 05:01:08;;;;;;;27.08;24.05;;;6.30;99.90;;;;;;4947661;28;20414;-76
2022/03/23 05:03:34;;;;;;;30.00;26.75;;;6.30;99.90;;;;;;4946711;29;20040;-76
2022/03/23 05:06:00;;;;;;;25.83;23.15;;;6.40;99.90;;;;;;4946991;28;20047;-76
2022/03/23 05:08:25;;;;;;;26.92;23.92;;;6.30;99.90;;;;;;4946722;28;20047;-76
2022/03/23 05:10:51;;;;;;;26.33;23.67;;;6.30;99.90;;;;;;4944542;29;20514;-76
2022/03/23 05:13:17;;;;;;;40.08;27.80;;;6.30;99.90;;;;;;4946745;28;20146;-76
2022/03/23 05:15:43;;;;;;;34.40;26.38;;;6.30;99.90;;;;;;4940297;29;20042;-76
2022/03/23 05:18:09;;;;;;;25.13;22.42;;;6.30;99.90;;;;;;4927368;29;20043;-76
2022/03/23 05:20:34;;;;;;;30.27;22.65;;;6.30;99.90;;;;;;4927887;29;20040;-76
2022/03/23 05:23:00;;;;;;;25.10;19.80;;;6.30;99.90;;;;;;4938846;29;20067;-76
2022/03/23 05:25:26;;;;;;;25.85;22.85;;;6.30;99.90;;;;;;4945346;28;20058;-76
2022/03/23 05:27:52;;;;;;;25.70;22.83;;;6.30;99.90;;;;;;4945023;29;20126;-76
2022/03/23 05:30:18;;;;;;;37.22;20.92;;;6.20;99.90;;;;;;4945646;29;20133;-76
2022/03/23 05:32:44;;;;;;;22.50;20.30;;;6.20;99.90;;;;;;4944099;28;20291;-76
2022/03/23 05:35:11;;;;;;;32.55;19.77;;;6.20;99.90;;;;;;4946523;28;20035;-76
2022/03/23 05:37:37;;;;;;;32.65;24.55;;;6.20;99.90;;;;;;4946618;28;20089;-76
2022/03/23 05:40:06;;;;;;;27.88;22.13;;;6.20;99.90;;;;;;4945526;28;20055;-76
2022/03/23 05:42:32;;;;;;;33.15;22.65;;;6.20;99.90;;;;;;4944935;29;20411;-76
2022/03/23 05:44:57;;;;;;;29.33;24.35;;;6.20;99.90;;;;;;4939783;28;20040;-75
2022/03/23 05:47:23;;;;;;;31.95;25.38;;;6.20;99.90;;;;;;4925600;29;20782;-76
2022/03/23 05:49:49;;;;;;;23.33;20.35;;;6.20;99.90;;;;;;4943358;28;20043;-76
2022/03/23 05:52:15;;;;;;;25.77;20.55;;;6.20;99.90;;;;;;4945264;28;20043;-76
2022/03/23 05:54:40;;;;;;;25.77;19.88;;;6.20;99.90;;;;;;4945809;28;20063;-76
2022/03/23 05:57:06;;;;;;;33.72;20.98;;;6.10;99.90;;;;;;4960727;28;20055;-76
2022/03/23 05:59:31;;;;;;;23.67;21.25;;;6.20;99.90;;;;;;4944861;29;20035;-76
2022/03/23 06:02:00;;;;;;;32.17;22.88;;;6.10;99.90;;;;;;4943901;28;20091;-76
2022/03/23 06:04:27;;;;;;;25.67;22.75;;;6.20;99.90;;;;;;4926421;29;20052;-76
2022/03/23 06:06:53;;;;;;;29.05;24.50;;;6.10;99.90;;;;;;4926979;29;20119;-76
2022/03/23 06:09:19;;;;;;;23.85;19.83;;;6.10;99.90;;;;;;4926360;29;20059;-76
2022/03/23 06:11:45;;;;;;;44.30;23.88;;;6.20;99.90;;;;;;4940180;28;20074;-76
2022/03/23 06:14:10;;;;;;;23.80;21.27;;;6.20;99.90;;;;;;4926523;29;20059;-76
2022/03/23 06:16:36;;;;;;;34.42;25.20;;;6.20;99.90;;;;;;4944813;29;20047;-76
2022/03/23 06:19:02;;;;;;;27.85;25.27;;;6.20;99.90;;;;;;4938111;29;20099;-76
2022/03/23 06:21:27;;;;;;;30.83;25.67;;;6.20;99.90;;;;;;4926108;29;20505;-75
2022/03/23 06:23:53;;;;;;;23.35;20.95;;;6.20;99.90;;;;;;4926559;29;20391;-77
2022/03/23 06:26:18;;;;;;;25.58;22.98;;;6.20;99.90;;;;;;4925144;29;20067;-76
2022/03/23 06:28:44;;;;;;;35.38;25.10;;;6.20;99.90;;;;;;4941917;29;20055;-76
2022/03/23 06:31:09;;;;;;;34.50;26.13;;;6.20;99.90;;;;;;4936294;29;20043;-76
2022/03/23 06:33:35;;;;;;;30.50;22.17;;;6.30;99.90;;;;;;4928170;29;20054;-77
2022/03/23 06:36:01;;;;;;;31.65;24.88;;;6.30;99.90;;;;;;4939233;28;20126;-76
2022/03/23 06:38:27;;;;;;;27.42;24.50;;;6.30;99.90;;;;;;4940721;29;20058;-76
2022/03/23 06:40:52;;;;;;;44.25;24.20;;;6.30;99.90;;;;;;4938799;28;20051;-76
2022/03/23 06:43:18;;;;;;;38.63;25.95;;;6.40;99.90;;;;;;4925838;29;20063;-76
2022/03/23 06:45:44;;;;;;;26.85;23.50;;;6.40;99.90;;;;;;4924880;29;20690;-77
2022/03/23 06:48:09;;;;;;;28.75;22.95;;;6.40;99.90;;;;;;4924187;29;20083;-76
2022/03/23 06:50:36;;;;;;;24.48;21.73;;;6.40;99.90;;;;;;4923994;29;20102;-76
2022/03/23 06:53:02;;;;;;;32.10;28.70;;;6.50;99.90;;;;;;4929873;29;20138;-76
2022/03/23 06:55:27;;;;;;;29.00;23.83;;;6.50;99.90;;;;;;4923160;29;20537;-76
2022/03/23 06:57:54;;;;;;;32.08;26.02;;;6.50;99.90;;;;;;4924596;29;20039;-79
2022/03/23 07:00:19;;;;;;;29.65;26.45;;;6.50;99.90;;;;;;4925818;29;20047;-78
2022/03/23 07:02:47;;;;;;;30.13;22.70;;;6.50;99.90;;;;;;4923906;29;20106;-79
2022/03/23 07:05:15;;;;;;;25.90;23.05;;;6.60;99.90;;;;;;4927874;29;20292;-79
2022/03/23 07:10:26;;;;;;;25.02;22.50;;;6.70;99.90;;;;;;4922220;29;20135;-79
2022/03/23 07:12:51;;;;;;;34.78;24.05;;;6.70;99.90;;;;;;4940008;28;20138;-78
2022/03/23 07:15:17;;;;;;;32.15;24.83;;;6.70;99.90;;;;;;4925150;29;20087;-78
2022/03/23 07:17:42;;;;;;;29.50;26.63;;;6.80;99.90;;;;;;4940619;29;20086;-78
2022/03/23 07:20:09;;;;;;;29.83;27.05;;;6.80;99.90;;;;;;4923444;29;20055;-78
2022/03/23 07:22:35;;;;;;;25.70;23.02;;;6.90;99.90;;;;;;4925102;29;20051;-78
2022/03/23 07:25:00;;;;;;;40.50;29.05;;;6.90;99.90;;;;;;4923064;29;20046;-78
2022/03/23 07:27:26;;;;;;;27.02;24.35;;;6.90;99.90;;;;;;4924769;29;20056;-78
2022/03/23 07:29:52;;;;;;;32.33;22.55;;;7.00;99.90;;;;;;4925082;29;20095;-78
2022/03/23 07:32:18;;;;;;;29.13;25.83;;;7.00;99.90;;;;;;4923793;29;20720;-82
2022/03/23 07:34:43;;;;;;;31.80;26.35;;;7.10;99.90;;;;;;4927885;28;20497;-81
2022/03/23 07:37:09;;;;;;;37.95;28.70;;;7.10;99.90;;;;;;4928640;28;20134;-81
2022/03/23 07:39:35;;;;;;;33.45;24.67;;;7.10;99.90;;;;;;4924203;29;20043;-79
2022/03/23 07:42:02;;;;;;;28.85;25.60;;;7.20;99.90;;;;;;4923705;29;20094;-79
2022/03/23 07:44:29;;;;;;;27.48;24.02;;;7.20;99.90;;;;;;4920669;29;20071;-76
2022/03/23 07:46:54;;;;;;;34.28;23.85;;;7.20;99.90;;;;;;4920962;29;20127;-78
2022/03/23 07:49:20;;;;;;;24.52;22.10;;;7.20;99.90;;;;;;4920938;29;20053;-76
2022/03/23 07:51:45;;;;;;;25.77;23.20;;;7.30;99.90;;;;;;4925184;29;20128;-78
2022/03/23 07:54:11;;;;;;;23.08;20.92;;;7.30;99.90;;;;;;4923537;29;20089;-78
2022/03/23 07:56:37;;;;;;;25.95;22.73;;;7.30;99.90;;;;;;4930379;29;20605;-78
2022/03/23 07:59:02;;;;;;;35.75;21.73;;;7.30;99.90;;;;;;4930845;29;20624;-78
2022/03/23 08:01:28;;;;;;;30.92;22.00;;;7.40;99.90;;;;;;4915360;29;20746;-79
2022/03/23 08:03:54;;;;;;;21.92;19.58;;;7.40;99.90;;;;;;4913948;29;20119;-79
2022/03/23 08:06:19;;;;;;;23.88;20.35;;;7.50;99.90;;;;;;4929802;29;20544;-80
2022/03/23 08:08:45;;;;;;;28.40;23.52;;;7.60;99.90;;;;;;4931072;29;20537;-76
2022/03/23 08:11:11;;;;;;;29.27;23.17;;;7.60;99.90;;;;;;4930079;29;20056;-80
2022/03/23 08:13:36;;;;;;;32.17;22.13;;;7.60;99.90;;;;;;4931222;29;20127;-79
2022/03/23 08:16:04;;;;;;;28.45;21.27;;;7.70;99.90;;;;;;4928918;29;20043;-79
2022/03/23 08:18:29;;;;;;;21.48;18.40;;;7.70;99.90;;;;;;4941284;29;20506;-81
2022/03/23 08:20:55;;;;;;;22.45;15.55;;;7.80;99.90;;;;;;4931709;29;20070;-77
2022/03/23 08:23:20;;;;;;;24.90;17.83;;;7.80;99.90;;;;;;4929007;29;20142;-78
2022/03/23 08:25:46;;;;;;;23.95;21.40;;;7.80;99.90;;;;;;4944411;29;20047;-78
2022/03/23 08:28:17;;;;;;;26.38;19.50;;;7.90;99.90;;;;;;4930582;29;20048;-76
2022/03/23 08:30:44;;;;;;;24.35;18.33;;;8.00;99.90;;;;;;4930683;29;20169;-76
2022/03/23 08:33:10;;;;;;;21.45;18.42;;;8.10;99.90;;;;;;4928653;29;20083;-76
2022/03/23 08:35:37;;;;;;;20.50;18.42;;;8.20;99.90;;;;;;4929026;29;20094;-76
2022/03/23 08:38:03;;;;;;;23.77;19.58;;;8.20;99.90;;;;;;4930099;29;20589;-76
2022/03/23 08:40:29;;;;;;;23.35;16.33;;;8.30;99.90;;;;;;4928756;29;20054;-76
2022/03/23 08:42:57;;;;;;;15.85;14.27;;;8.30;99.90;;;;;;4930281;29;20043;-76
2022/03/23 08:45:23;;;;;;;34.30;18.10;;;8.40;99.90;;;;;;4929492;29;20036;-76
2022/03/23 08:47:49;;;;;;;17.30;15.38;;;8.40;99.90;;;;;;4929586;29;20333;-76
2022/03/23 08:50:16;;;;;;;25.10;16.25;;;8.50;99.90;;;;;;4928185;29;20040;-76
2022/03/23 08:52:42;;;;;;;27.60;19.75;;;8.60;99.90;;;;;;4929641;29;20115;-76
2022/03/23 08:55:10;;;;;;;23.02;14.48;;;8.60;99.90;;;;;;4928085;29;20186;-76
2022/03/23 08:57:37;;;;;;;22.73;15.13;;;8.70;99.90;;;;;;4930452;29;20047;-76
2022/03/23 09:00:07;;;;;;;23.25;16.95;;;8.80;99.90;;;;;;4929728;29;20163;-76
2022/03/23 09:02:33;;;;;;;17.38;15.35;;;8.90;99.90;;;;;;4928799;29;20054;-76
2022/03/23 09:04:58;;;;;;;22.63;15.38;;;8.90;99.90;;;;;;4929848;29;20048;-76
2022/03/23 09:07:24;;;;;;;24.05;16.25;;;9.00;99.90;;;;;;4927138;29;20046;-76
2022/03/23 09:09:50;;;;;;;35.58;17.05;;;9.10;99.90;;;;;;4924171;29;20254;-76
2022/03/23 09:12:15;;;;;;;26.75;11.65;;;9.10;99.90;;;;;;4926563;29;20503;-76
2022/03/23 09:14:41;;;;;;;30.20;14.27;;;9.20;99.90;;;;;;4925986;29;20048;-76
2022/03/23 09:17:07;;;;;;;21.90;16.45;;;9.30;99.90;;;;;;4927191;29;20402;-76
2022/03/23 09:19:33;;;;;;;20.40;16.08;;;9.30;99.90;;;;;;4925086;29;20048;-76
2022/03/23 09:21:59;;;;;;;11.63;10.30;;;9.40;99.90;;;;;;4926263;29;20059;-76
2022/03/23 09:24:28;;;;;;;19.98;13.20;;;9.50;99.90;;;;;;4925408;29;20056;-76
2022/03/23 09:26:55;;;;;;;18.15;12.95;;;9.50;99.90;;;;;;4907359;29;20514;-76
2022/03/23 09:29:21;;;;;;;16.35;12.40;;;9.60;99.90;;;;;;4907471;29;20044;-76
2022/03/23 09:31:47;;;;;;;23.70;13.93;;;9.70;99.90;;;;;;4926763;29;20419;-76
2022/03/23 09:34:13;;;;;;;18.52;15.10;;;9.70;99.90;;;;;;4925591;29;20582;-76
2022/03/23 09:39:22;;;;;;;22.20;14.65;;;9.80;99.90;;;;;;4925186;29;20059;-76
2022/03/23 09:41:48;;;;;;;22.45;15.10;;;9.80;99.90;;;;;;4926247;29;20506;-76
2022/03/23 09:44:15;;;;;;;16.52;13.52;;;9.90;99.90;;;;;;4924729;29;20067;-76
2022/03/23 09:46:42;;;;;;;18.13;12.05;;;10.00;99.90;;;;;;4925861;29;20083;-76
2022/03/23 09:49:08;;;;;;;17.75;12.05;;;10.10;99.90;;;;;;4925867;29;20047;-76
2022/03/23 09:51:35;;;;;;;27.23;12.57;;;10.20;99.90;;;;;;4926134;29;20043;-76
2022/03/23 09:54:02;;;;;;;20.02;11.95;;;10.30;99.90;;;;;;4923863;29;20102;-76
2022/03/23 09:56:28;;;;;;;18.05;10.32;;;10.30;99.90;;;;;;4925109;29;20043;-76
2022/03/23 09:58:54;;;;;;;25.88;12.00;;;10.40;99.90;;;;;;4924224;29;20040;-76
2022/03/23 10:01:28;;;;;;;20.35;12.77;;;10.50;99.90;;;;;;4925191;29;20046;-76
2022/03/23 10:04:09;;;;;;;17.50;11.70;;;10.50;99.90;;;;;;4924387;29;20084;-76
2022/03/23 10:06:59;;;;;;;12.38;9.98;;;10.60;99.90;;;;;;4925756;29;20067;-76
2022/03/23 10:09:40;;;;;;;16.23;12.02;;;10.60;99.90;;;;;;4923367;29;20079;-76
2022/03/23 10:12:47;;;;;;;15.23;11.32;;;10.60;99.90;;;;;;4908426;29;20044;-76
2022/03/23 10:15:40;;;;;;;24.48;13.50;;;10.60;99.90;;;;;;4925420;29;20044;-76
2022/03/23 10:18:47;;;;;;;18.40;11.85;;;10.70;99.90;;;;;;4925003;29;20048;-76
2022/03/23 10:21:13;;;;;;;17.80;11.93;;;10.70;99.90;;;;;;4923781;29;20091;-76
2022/03/23 10:23:49;;;;;;;15.27;11.57;;;10.80;99.90;;;;;;4925783;29;20044;-76
2022/03/23 10:26:14;;;;;;;17.05;10.05;;;10.80;99.90;;;;;;4924276;29;20533;-76
2022/03/23 10:28:40;;;;;;;18.67;11.80;;;10.90;99.90;;;;;;4923640;29;20051;-76
2022/03/23 10:31:20;;;;;;;18.23;11.23;;;10.90;99.90;;;;;;4925859;29;20099;-76
2022/03/23 10:34:08;;;;;;;16.80;10.75;;;11.00;99.90;;;;;;4923647;29;20398;-76
2022/03/23 10:36:39;;;;;;;18.27;10.30;;;11.10;99.90;;;;;;4925636;29;20059;-76
2022/03/23 10:39:10;;;;;;;12.38;10.80;;;11.20;99.90;;;;;;4924539;29;20454;-76
2022/03/23 10:41:36;;;;;;;20.08;10.10;;;11.10;99.90;;;;;;4923942;29;20101;-76
2022/03/23 10:44:02;;;;;;;18.90;10.63;;;11.20;99.90;;;;;;4924285;29;20404;-76
2022/03/23 10:46:28;;;;;;;15.68;10.45;;;11.20;99.90;;;;;;4924437;29;20161;-76
2022/03/23 10:49:02;;;;;;;11.52;10.40;;;11.30;99.90;;;;;;4924678;29;20494;-76
2022/03/23 10:51:35;;;;;;;19.90;9.00;;;11.20;99.90;;;;;;4924772;29;20047;-76
2022/03/23 10:54:20;;;;;;;16.63;10.23;;;11.20;99.90;;;;;;4923134;29;20044;-76
2022/03/23 10:56:46;;;;;;;11.10;9.27;;;11.20;99.90;;;;;;4923782;29;20048;-76
2022/03/23 10:59:23;;;;;;;8.25;7.43;;;11.30;99.90;;;;;;4905265;29;20356;-76
2022/03/23 11:01:57;;;;;;;10.30;7.85;;;11.40;99.90;;;;;;4923032;29;20047;-76
2022/03/23 11:04:24;;;;;;;16.23;10.10;;;11.30;99.90;;;;;;4924608;29;20118;-76
2022/03/23 11:06:50;;;;;;;12.25;9.05;;;11.40;99.90;;;;;;4923662;29;20044;-76
2022/03/23 11:17:48;;;;;;;18.45;8.20;;;11.50;99.90;;;;;;4936993;28;20731;-77
2022/03/23 11:20:15;;;;;;;11.93;7.25;;;11.60;99.90;;;;;;4924658;29;20115;-78
2022/03/23 11:22:41;;;;;;;11.13;6.53;;;11.70;99.90;;;;;;4922811;29;20855;-77
2022/03/23 11:25:07;;;;;;;24.40;6.93;;;11.70;99.90;;;;;;4923868;29;20123;-78
2022/03/23 11:27:35;;;;;;;11.07;6.15;;;11.70;99.90;;;;;;4923622;29;20518;-79
2022/03/23 11:30:01;;;;;;;10.88;8.65;;;11.70;99.90;;;;;;4922681;29;20063;-78
2022/03/23 11:32:37;;;;;;;11.52;8.13;;;11.70;99.90;;;;;;4921732;29;20043;-78
2022/03/23 11:35:05;;;;;;;13.65;7.50;;;11.70;99.90;;;;;;4921283;29;20058;-78
2022/03/23 11:37:34;;;;;;;11.73;8.43;;;11.70;99.90;;;;;;4925128;29;20039;-78
2022/03/23 11:40:00;;;;;;;12.48;7.15;;;11.80;99.90;;;;;;4920210;29;20434;-78
2022/03/23 11:42:26;;;;;;;19.73;9.13;;;11.90;99.90;;;;;;4924871;29;20054;-78
2022/03/23 11:44:52;;;;;;;12.32;7.28;;;11.90;99.90;;;;;;4923725;29;20036;-78
2022/03/23 11:47:28;;;;;;;13.43;7.15;;;12.00;99.90;;;;;;4919419;29;20522;-78
2022/03/23 11:50:40;;;;;;;10.95;7.38;;;12.00;99.90;;;;;;4924224;29;20320;-78
2022/03/23 11:53:29;;;;;;;12.90;8.00;;;12.00;99.90;;;;;;4899745;29;20091;-75
2022/03/23 11:55:56;;;;;;;12.65;6.05;;;12.00;99.90;;;;;;4922189;29;20130;-75
2022/03/23 11:58:34;;;;;;;9.98;7.07;;;12.10;99.90;;;;;;4937509;29;20557;-75
2022/03/23 12:01:12;;;;;;;7.07;6.10;;;12.10;99.90;;;;;;4923579;29;20040;-75
2022/03/23 12:03:40;;;;;;;9.43;6.28;;;12.10;99.90;;;;;;4924258;29;20070;-75
2022/03/23 12:06:39;;;;;;;6.90;6.18;;;12.20;99.90;;;;;;4922805;29;20517;-75
2022/03/23 12:09:05;;;;;;;9.50;6.10;;;12.20;99.90;;;;;;4922960;29;20142;-75
2022/03/23 12:11:49;;;;;;;10.70;6.25;;;12.30;99.90;;;;;;4922322;29;20126;-75
2022/03/23 12:14:26;;;;;;;10.00;8.05;;;12.30;99.90;;;;;;4938250;29;20043;-75
2022/03/23 12:16:52;;;;;;;11.23;7.30;;;12.40;99.90;;;;;;4922720;29;20521;-75
2022/03/23 12:19:24;;;;;;;13.73;7.70;;;12.50;99.90;;;;;;4923364;29;20056;-75
2022/03/23 12:22:10;;;;;;;7.45;5.80;;;12.60;99.90;;;;;;4922470;29;20071;-75
2022/03/23 12:25:02;;;;;;;11.43;5.75;;;12.50;99.90;;;;;;4921564;29;20051;-75
2022/03/23 12:27:48;;;;;;;10.63;7.28;;;12.60;99.90;;;;;;4922060;29;20308;-75
2022/03/23 12:30:18;;;;;;;10.45;5.70;;;12.60;99.90;;;;;;4937782;29;20387;-75
2022/03/23 12:32:44;;;;;;;15.52;7.00;;;12.60;99.90;;;;;;4923308;29;20272;-75
2022/03/23 12:35:09;;;;;;;9.00;5.35;;;12.60;99.90;;;;;;4923814;29;20047;-76
2022/03/23 12:37:41;;;;;;;9.50;6.85;;;12.60;99.90;;;;;;4923853;29;20079;-75
2022/03/23 12:40:15;;;;;;;9.50;4.90;;;12.60;99.90;;;;;;4922014;29;20044;-75
2022/03/23 12:42:43;;;;;;;9.07;6.72;;;12.60;99.90;;;;;;4925242;29;20299;-75
2022/03/23 12:45:13;;;;;;;9.38;5.70;;;12.60;99.90;;;;;;4926777;29;20040;-76
2022/03/23 12:47:51;;;;;;;11.18;5.57;;;12.60;99.90;;;;;;4927397;29;20044;-75
2022/03/23 12:58:43;;;;;;;6.15;5.03;;;12.80;99.90;;;;;;4926786;29;20052;-75
2022/03/23 13:01:12;;;;;;;7.97;4.32;;;12.70;99.90;;;;;;4927170;29;20036;-75
2022/03/23 13:03:43;;;;;;;11.32;5.30;;;12.70;99.90;;;;;;4926780;29;20055;-75
2022/03/23 13:06:15;;;;;;;7.68;6.70;;;12.80;99.90;;;;;;4909240;29;20063;-75
2022/03/23 13:08:47;;;;;;;11.70;6.75;;;12.80;99.90;;;;;;4925392;29;20417;-75
2022/03/23 13:11:24;;;;;;;5.75;5.20;;;12.90;99.90;;;;;;4906312;29;20060;-76